Time;durP1;ratioP1;P1;durP2;ratioP2;P2;SDS_P1;SDS_P2;PMS_P1;PMS_P2;Temp;Humidity;BMP_temperature;BMP_pressure;BME280_temperature;BME280_humidity;BME280_pressure;Samples;Min_cycle;Max_cycle;Signal;HPM_P1;HPM_P2
2022/09/02 03:00:23;;;;;;;3.10;1.30;;;13.80;99.90;;;;;;5952481;23;19933;-83
2022/09/02 03:02:53;;;;;;;2.88;1.10;;;13.80;99.90;;;;;;4899971;29;20492;-81
2022/09/02 03:05:18;;;;;;;3.25;1.17;;;13.80;99.90;;;;;;4901707;29;20417;-81
2022/09/02 03:07:44;;;;;;;7.05;1.27;;;13.80;99.90;;;;;;4900752;29;20083;-83
2022/09/02 03:10:12;;;;;;;2.88;1.20;;;13.80;99.90;;;;;;4900735;29;20047;-83
2022/09/02 03:12:38;;;;;;;2.25;1.10;;;13.80;99.90;;;;;;4898710;29;20048;-83
2022/09/02 03:15:06;;;;;;;2.20;1.15;;;13.70;99.90;;;;;;4866692;29;20049;-82
2022/09/02 03:17:31;;;;;;;2.58;1.33;;;13.70;99.90;;;;;;4882158;29;20507;-84
2022/09/02 03:19:58;;;;;;;2.50;1.20;;;13.80;99.90;;;;;;4898484;29;20075;-83
2022/09/02 03:22:25;;;;;;;3.35;1.60;;;13.70;99.90;;;;;;4898972;29;20480;-83
2022/09/02 03:24:50;;;;;;;2.72;1.30;;;13.70;99.90;;;;;;4881683;29;20119;-83
2022/09/02 03:27:16;;;;;;;4.65;2.08;;;13.70;99.90;;;;;;4898775;29;20119;-83
2022/09/02 03:29:43;;;;;;;3.08;1.25;;;13.70;99.90;;;;;;4898920;29;20040;-83
2022/09/02 03:32:09;;;;;;;2.83;1.27;;;13.70;99.90;;;;;;4881557;29;20055;-82
2022/09/02 03:34:35;;;;;;;4.28;1.25;;;13.70;99.90;;;;;;4898575;29;20041;-83
2022/09/02 03:37:00;;;;;;;2.70;1.10;;;13.70;99.90;;;;;;4899016;29;20077;-84
2022/09/02 03:39:26;;;;;;;2.75;1.10;;;13.60;99.90;;;;;;4898313;29;20049;-82
2022/09/02 03:41:52;;;;;;;1.92;1.10;;;13.60;99.90;;;;;;4881665;29;20045;-83
2022/09/02 03:44:18;;;;;;;4.90;1.00;;;13.60;99.90;;;;;;4881661;29;20119;-83
2022/09/02 03:46:44;;;;;;;3.30;1.42;;;13.60;99.90;;;;;;4898532;29;20176;-82
2022/09/02 03:49:10;;;;;;;2.33;1.13;;;13.60;99.90;;;;;;4898591;29;20068;-84
2022/09/02 03:51:40;;;;;;;3.47;1.20;;;13.60;99.90;;;;;;4898277;29;20457;-81
2022/09/02 03:54:06;;;;;;;2.35;1.15;;;13.60;99.90;;;;;;4898129;29;20044;-83
2022/09/02 03:56:33;;;;;;;1.90;1.10;;;13.60;99.90;;;;;;4881211;29;20044;-83
2022/09/02 03:58:59;;;;;;;2.95;1.10;;;13.70;99.90;;;;;;4882133;29;20530;-84
2022/09/02 04:01:25;;;;;;;3.05;1.15;;;13.60;99.90;;;;;;4897932;29;20076;-83
2022/09/02 04:03:51;;;;;;;2.60;1.13;;;13.60;99.90;;;;;;4881583;29;20055;-84
2022/09/02 04:06:19;;;;;;;2.08;1.05;;;13.60;99.90;;;;;;4881619;29;20051;-82
2022/09/02 04:08:48;;;;;;;2.30;1.00;;;13.50;99.90;;;;;;4898375;29;20092;-82
2022/09/02 04:11:17;;;;;;;4.05;1.20;;;13.60;99.90;;;;;;4899899;29;20476;-83
2022/09/02 04:13:44;;;;;;;2.15;1.10;;;13.60;99.90;;;;;;4885230;29;20507;-83
2022/09/02 04:16:13;;;;;;;2.88;1.10;;;13.60;99.90;;;;;;4902134;29;20032;-84
2022/09/02 04:18:40;;;;;;;2.15;1.20;;;13.50;99.90;;;;;;4869463;29;20126;-83
2022/09/02 04:21:06;;;;;;;2.15;1.30;;;13.50;99.90;;;;;;4885082;29;20077;-83
2022/09/02 04:23:32;;;;;;;3.28;1.30;;;13.50;99.90;;;;;;4884851;29;20091;-83
2022/09/02 04:26:01;;;;;;;4.50;1.40;;;13.50;99.90;;;;;;4885143;29;20037;-84
2022/09/02 04:28:27;;;;;;;2.28;1.17;;;13.60;99.90;;;;;;4884878;29;20408;-82
2022/09/02 04:30:53;;;;;;;2.17;1.17;;;13.40;99.90;;;;;;4884704;29;20051;-83
2022/09/02 04:33:22;;;;;;;5.30;1.55;;;13.50;99.90;;;;;;4901885;29;20044;-83
2022/09/02 04:35:51;;;;;;;1.90;1.30;;;13.40;99.90;;;;;;4901460;29;20041;-83
2022/09/02 04:38:17;;;;;;;2.92;1.50;;;13.40;99.90;;;;;;4901339;29;20505;-84
2022/09/02 04:40:45;;;;;;;8.50;1.75;;;13.40;99.90;;;;;;4901510;29;20131;-82
2022/09/02 04:43:11;;;;;;;3.45;1.30;;;13.40;99.90;;;;;;4884878;29;20049;-83
2022/09/02 04:45:44;;;;;;;2.53;1.38;;;13.40;99.90;;;;;;4884327;29;20048;-83
2022/09/02 04:48:11;;;;;;;3.55;1.67;;;13.30;99.90;;;;;;4884254;29;20124;-80
2022/09/02 04:50:39;;;;;;;3.50;1.48;;;13.40;99.90;;;;;;4901726;29;20124;-82
2022/09/02 04:53:05;;;;;;;2.72;1.52;;;13.30;99.90;;;;;;4900892;29;20475;-83
2022/09/02 04:55:32;;;;;;;4.68;1.50;;;13.30;99.90;;;;;;4901363;29;20073;-84
2022/09/02 04:57:58;;;;;;;4.18;1.80;;;13.30;99.90;;;;;;4869488;29;20413;-83
2022/09/02 05:00:24;;;;;;;4.25;1.45;;;13.30;99.90;;;;;;4901068;29;20060;-83
2022/09/02 05:02:52;;;;;;;1.95;1.00;;;13.30;99.90;;;;;;4901237;29;20105;-83
2022/09/02 05:05:17;;;;;;;4.10;1.60;;;13.30;99.90;;;;;;4884518;29;20067;-83
2022/09/02 05:07:43;;;;;;;3.15;1.45;;;13.30;99.90;;;;;;4901351;29;20040;-83
2022/09/02 05:10:11;;;;;;;5.38;1.17;;;13.30;99.90;;;;;;4884219;29;20037;-83
2022/09/02 05:12:39;;;;;;;4.40;1.40;;;13.30;99.90;;;;;;4884026;29;20098;-83
2022/09/02 05:15:06;;;;;;;3.25;1.30;;;13.40;99.90;;;;;;4901009;29;20060;-83
2022/09/02 05:17:32;;;;;;;3.35;1.50;;;13.40;99.90;;;;;;4884214;29;20088;-83
2022/09/02 05:19:58;;;;;;;3.03;1.70;;;13.40;99.90;;;;;;4900836;29;20433;-83
2022/09/02 05:22:25;;;;;;;4.90;1.55;;;13.40;99.90;;;;;;4882477;29;20048;-83
2022/09/02 05:24:50;;;;;;;2.97;1.13;;;13.40;99.90;;;;;;4900824;29;20464;-83
2022/09/02 05:27:16;;;;;;;2.40;1.20;;;13.40;99.90;;;;;;4883914;29;20076;-83
2022/09/02 05:29:42;;;;;;;2.28;1.35;;;13.50;99.90;;;;;;4900735;29;20076;-84
2022/09/02 05:32:08;;;;;;;4.30;1.30;;;13.50;99.90;;;;;;4900679;29;20052;-83
2022/09/02 05:34:34;;;;;;;2.65;1.48;;;13.50;99.90;;;;;;4883597;29;20076;-83
2022/09/02 05:37:01;;;;;;;3.50;1.60;;;13.50;99.90;;;;;;4884059;29;20370;-84
2022/09/02 05:39:27;;;;;;;3.28;1.10;;;13.50;99.90;;;;;;4883607;29;20048;-84
2022/09/02 05:41:53;;;;;;;3.67;1.35;;;13.50;99.90;;;;;;4883384;29;20453;-80
2022/09/02 05:44:19;;;;;;;5.47;1.60;;;13.50;99.90;;;;;;4883624;29;20046;-82
2022/09/02 05:46:44;;;;;;;3.20;1.23;;;13.50;99.90;;;;;;4883417;29;20397;-82
2022/09/02 05:49:16;;;;;;;4.55;1.30;;;13.50;99.90;;;;;;4883584;29;20053;-82
2022/09/02 05:51:45;;;;;;;2.38;1.30;;;13.50;99.90;;;;;;4883522;29;20105;-82
2022/09/02 05:54:21;;;;;;;5.75;1.27;;;13.50;99.90;;;;;;4883273;29;20195;-81
2022/09/02 05:56:50;;;;;;;;;;;13.60;99.90;;;;;;4900699;29;20040;-82
2022/09/02 05:59:17;;;;;;;3.17;1.30;;;13.60;99.90;;;;;;4883105;29;19930;-82
2022/09/02 06:01:42;;;;;;;3.25;1.25;;;13.60;99.90;;;;;;4900084;29;20068;-83
2022/09/02 06:04:08;;;;;;;2.75;1.30;;;13.60;99.90;;;;;;4868379;29;20135;-81
2022/09/02 06:06:37;;;;;;;3.47;1.60;;;13.60;99.90;;;;;;4901215;29;20040;-82
2022/09/02 06:09:07;;;;;;;5.35;1.35;;;13.70;99.90;;;;;;4900124;29;20051;-83
2022/09/02 06:11:43;;;;;;;3.22;1.20;;;13.70;99.90;;;;;;4899918;29;20048;-82
2022/09/02 06:14:09;;;;;;;2.88;1.20;;;13.80;99.90;;;;;;4883134;29;20485;-82
2022/09/02 06:16:36;;;;;;;2.88;1.27;;;13.90;99.90;;;;;;4882749;29;20104;-82
2022/09/02 06:19:02;;;;;;;2.53;1.02;;;13.90;99.90;;;;;;4882852;29;20055;-81
2022/09/02 06:21:29;;;;;;;4.53;1.20;;;13.90;99.90;;;;;;4882584;29;20124;-82
2022/09/02 06:23:55;;;;;;;3.42;1.48;;;13.90;99.90;;;;;;4882639;29;20047;-82
2022/09/02 06:26:21;;;;;;;4.97;1.25;;;14.00;99.90;;;;;;4882652;29;20036;-80
2022/09/02 06:28:47;;;;;;;3.47;1.27;;;14.00;99.90;;;;;;4867371;29;20107;-80
2022/09/02 06:31:15;;;;;;;3.70;1.52;;;14.00;99.90;;;;;;4882695;29;20044;-80
2022/09/02 06:33:43;;;;;;;4.18;1.20;;;14.10;99.90;;;;;;4882210;29;20056;-82
2022/09/02 06:36:11;;;;;;;2.45;1.17;;;14.20;99.90;;;;;;4882440;29;20044;-82
2022/09/02 06:38:42;;;;;;;2.88;1.25;;;14.20;99.90;;;;;;4882879;29;20381;-82
2022/09/02 06:41:12;;;;;;;4.10;1.40;;;14.20;99.90;;;;;;4899486;29;20041;-81
2022/09/02 06:43:37;;;;;;;2.92;1.00;;;14.30;99.90;;;;;;4899095;29;20068;-81
2022/09/02 06:46:04;;;;;;;2.13;1.13;;;14.30;99.90;;;;;;4882587;29;20041;-82
2022/09/02 06:48:30;;;;;;;2.42;1.20;;;14.40;99.90;;;;;;4866860;29;20119;-82
2022/09/02 06:50:55;;;;;;;3.30;1.55;;;14.40;99.90;;;;;;4882264;29;20173;-81
2022/09/02 06:53:21;;;;;;;2.88;1.20;;;14.50;99.90;;;;;;4882170;29;20115;-82
2022/09/02 06:55:47;;;;;;;5.68;1.30;;;14.60;99.90;;;;;;4882141;29;20044;-83
2022/09/02 06:58:13;;;;;;;3.88;1.33;;;14.70;99.90;;;;;;4882050;29;20123;-82
2022/09/02 07:00:41;;;;;;;4.72;1.30;;;14.80;99.90;;;;;;4881999;29;20079;-81
2022/09/02 07:06:01;;;;;;;2.63;1.20;;;14.90;99.90;;;;;;4883054;29;20048;-82
2022/09/02 07:08:27;;;;;;;4.20;1.13;;;15.00;99.90;;;;;;4881971;29;20051;-82
2022/09/02 07:10:53;;;;;;;5.72;1.25;;;15.10;99.90;;;;;;4898698;29;20100;-81
2022/09/02 07:13:18;;;;;;;3.75;1.20;;;15.20;99.90;;;;;;4882017;29;20072;-81
2022/09/02 07:15:44;;;;;;;3.22;1.20;;;15.30;99.90;;;;;;4881828;29;20116;-82
2022/09/02 07:18:10;;;;;;;3.08;1.05;;;15.40;99.90;;;;;;4882166;29;20040;-82
2022/09/02 07:20:35;;;;;;;3.58;1.45;;;15.40;99.90;;;;;;4898806;29;20107;-83
2022/09/02 07:23:01;;;;;;;2.47;1.15;;;15.50;99.90;;;;;;4881832;29;20045;-82
2022/09/02 07:25:26;;;;;;;6.45;1.52;;;15.60;99.90;;;;;;4881787;29;20041;-82
2022/09/02 07:27:53;;;;;;;4.68;1.08;;;15.70;99.90;;;;;;4881674;29;20040;-80
2022/09/02 07:30:19;;;;;;;5.65;1.10;;;15.80;99.90;;;;;;4881644;29;20046;-79
2022/09/02 07:32:44;;;;;;;4.40;1.40;;;15.80;99.90;;;;;;4881662;29;20436;-82
2022/09/02 07:35:10;;;;;;;5.57;1.10;;;16.00;99.90;;;;;;4881913;29;20056;-83
2022/09/02 07:37:36;;;;;;;2.63;1.27;;;16.10;99.90;;;;;;4882233;29;20404;-81
2022/09/02 07:40:05;;;;;;;4.80;1.23;;;16.20;99.90;;;;;;4881784;29;20048;-82
2022/09/02 07:42:31;;;;;;;5.93;1.17;;;16.30;99.90;;;;;;4881743;29;20087;-80
2022/09/02 07:44:57;;;;;;;2.17;1.00;;;16.40;99.90;;;;;;4880835;29;20123;-84
2022/09/02 07:47:22;;;;;;;4.75;1.10;;;16.50;99.90;;;;;;4881975;29;20500;-84
2022/09/02 07:49:48;;;;;;;4.18;1.50;;;16.60;99.90;;;;;;4882196;29;20119;-82
2022/09/02 07:52:14;;;;;;;2.28;1.10;;;16.70;99.90;;;;;;4898854;29;20469;-83
2022/09/02 07:54:39;;;;;;;2.55;1.20;;;16.80;99.90;;;;;;4898524;29;20045;-78
2022/09/02 07:57:05;;;;;;;2.75;1.55;;;16.90;99.90;;;;;;4898564;29;20524;-83
2022/09/02 07:59:31;;;;;;;5.20;1.60;;;17.00;99.90;;;;;;4881536;29;20592;-83
2022/09/02 08:01:57;;;;;;;3.55;1.30;;;17.10;99.90;;;;;;4897906;29;20049;-83
2022/09/02 08:04:23;;;;;;;3.55;1.15;;;17.30;99.90;;;;;;4881409;29;20087;-81
2022/09/02 08:06:51;;;;;;;3.75;1.10;;;17.30;99.90;;;;;;4881526;29;20087;-83
2022/09/02 08:09:17;;;;;;;5.70;1.48;;;17.40;99.90;;;;;;4881251;29;20036;-83
2022/09/02 08:11:46;;;;;;;2.47;1.00;;;17.50;99.90;;;;;;4881604;29;20055;-82
2022/09/02 08:14:16;;;;;;;2.47;1.17;;;17.60;99.90;;;;;;4881302;29;20048;-81
2022/09/02 08:16:43;;;;;;;2.38;1.10;;;17.70;99.90;;;;;;4881384;29;20060;-82
2022/09/02 08:19:09;;;;;;;2.85;1.20;;;17.70;99.90;;;;;;4898285;29;20087;-82
2022/09/02 08:21:35;;;;;;;2.70;1.17;;;17.90;99.90;;;;;;4881017;29;20080;-82
2022/09/02 08:24:01;;;;;;;4.40;1.20;;;18.00;99.90;;;;;;4881495;29;20048;-82
2022/09/02 08:26:27;;;;;;;6.25;1.10;;;18.10;99.90;;;;;;4881174;29;20037;-82
2022/09/02 08:28:54;;;;;;;3.25;1.30;;;18.20;99.90;;;;;;4881128;29;20063;-81
2022/09/02 08:31:19;;;;;;;5.10;1.30;;;18.30;99.90;;;;;;4865991;29;20393;-81
2022/09/02 08:33:45;;;;;;;3.22;1.15;;;18.50;99.90;;;;;;4881448;29;20056;-83
2022/09/02 08:36:13;;;;;;;3.75;1.20;;;18.60;99.90;;;;;;4881027;29;20051;-83
2022/09/02 08:38:43;;;;;;;3.20;1.10;;;18.70;99.90;;;;;;4896056;29;20333;-83
2022/09/02 08:41:18;;;;;;;3.60;1.20;;;18.90;99.90;;;;;;4879786;29;20052;-83
2022/09/02 08:43:45;;;;;;;3.47;1.10;;;19.00;99.90;;;;;;4879802;29;20053;-83
2022/09/02 08:46:15;;;;;;;5.15;1.20;;;19.10;99.90;;;;;;4880288;29;20068;-84
2022/09/02 08:49:09;;;;;;;5.13;1.23;;;19.20;99.90;;;;;;4880081;29;20063;-81
2022/09/02 08:51:51;;;;;;;6.32;1.20;;;19.40;99.90;;;;;;4880010;29;20063;-83
2022/09/02 08:54:22;;;;;;;2.67;1.00;;;19.50;99.90;;;;;;4881807;29;20144;-83
2022/09/02 08:56:50;;;;;;;3.33;1.10;;;19.60;99.90;;;;;;4914011;29;20392;-82
2022/09/02 08:59:21;;;;;;;3.08;1.10;;;19.70;99.90;;;;;;4901717;29;20413;-83
2022/09/02 09:02:24;;;;;;;5.00;1.20;;;19.80;99.90;;;;;;4901169;29;20116;-83
2022/09/02 09:05:08;;;;;;;5.20;1.33;;;20.00;99.90;;;;;;4884273;29;20048;-82
2022/09/02 09:07:52;;;;;;;4.13;1.20;;;20.20;99.90;;;;;;4915572;29;20044;-83
2022/09/02 09:10:41;;;;;;;3.50;1.20;;;20.40;99.90;;;;;;4884989;29;20047;-81
2022/09/02 09:13:35;;;;;;;3.55;1.15;;;20.60;99.90;;;;;;4884170;29;20045;-83
2022/09/02 09:16:24;;;;;;;4.97;1.00;;;20.70;99.90;;;;;;4915920;29;20048;-82
2022/09/02 09:19:02;;;;;;;3.15;0.95;;;20.90;99.90;;;;;;4894628;29;20568;-83
2022/09/02 09:21:30;;;;;;;4.38;1.35;;;21.00;99.90;;;;;;4884134;29;20044;-82
2022/09/02 09:23:59;;;;;;;2.58;1.17;;;21.10;99.90;;;;;;4884288;29;20532;-82
2022/09/02 09:26:32;;;;;;;3.53;0.93;;;21.20;99.90;;;;;;4899816;29;20052;-83
2022/09/02 09:29:02;;;;;;;4.90;0.90;;;21.30;99.90;;;;;;4901155;29;20115;-84
2022/09/02 09:31:31;;;;;;;5.65;0.90;;;21.40;99.90;;;;;;4900782;29;20392;-82
2022/09/02 09:34:12;;;;;;;5.85;1.00;;;21.50;99.90;;;;;;4900714;29;20076;-83
2022/09/02 09:36:40;;;;;;;2.60;1.33;;;21.60;99.90;;;;;;4900870;29;20049;-82
2022/09/02 09:39:25;;;;;;;3.58;1.10;;;21.70;99.90;;;;;;4900910;29;20051;-80
2022/09/02 09:41:57;;;;;;;3.42;0.80;;;21.80;99.90;;;;;;4883776;29;20123;-82
2022/09/02 09:44:36;;;;;;;5.25;1.10;;;21.90;99.90;;;;;;4900620;29;20033;-83
2022/09/02 09:47:05;;;;;;;5.32;0.85;;;22.00;99.50;;;;;;4883788;29;20040;-82
2022/09/02 09:49:32;;;;;;;3.90;1.10;;;22.10;99.80;;;;;;4883426;29;20096;-83
2022/09/02 09:51:59;;;;;;;5.00;0.98;;;22.20;99.80;;;;;;4900489;29;20044;-82
2022/09/02 09:54:26;;;;;;;2.40;0.80;;;22.30;99.80;;;;;;4900438;29;20044;-82
2022/09/02 09:56:54;;;;;;;5.78;1.00;;;22.40;98.10;;;;;;4900113;29;20055;-83
2022/09/02 09:59:41;;;;;;;12.98;1.38;;;22.50;97.50;;;;;;4900576;29;20041;-81
2022/09/02 10:02:22;;;;;;;6.13;1.10;;;22.70;97.80;;;;;;4900091;29;20112;-84
2022/09/02 10:04:48;;;;;;;2.10;0.88;;;22.80;95.60;;;;;;4883615;29;20048;-82
2022/09/02 10:07:13;;;;;;;4.18;1.05;;;23.00;95.60;;;;;;4900284;29;20481;-82
2022/09/02 10:09:39;;;;;;;3.80;0.80;;;23.10;94.90;;;;;;4899832;29;20033;-83
2022/09/02 10:12:08;;;;;;;3.63;0.80;;;23.20;93.90;;;;;;4899796;29;20091;-83
2022/09/02 10:14:33;;;;;;;2.88;0.75;;;23.30;92.50;;;;;;4883529;29;20044;-84
2022/09/02 10:17:30;;;;;;;3.58;0.90;;;23.40;92.20;;;;;;4883936;29;20180;-85
2022/09/02 10:20:12;;;;;;;4.47;1.00;;;23.40;91.10;;;;;;4877015;29;20090;-84
2022/09/02 10:22:59;;;;;;;3.60;0.77;;;23.50;90.50;;;;;;4900473;29;20096;-85
2022/09/02 10:25:30;;;;;;;6.15;0.90;;;23.60;89.90;;;;;;4884465;29;20131;-88
2022/09/02 10:28:27;;;;;;;3.05;0.88;;;23.80;90.10;;;;;;4884282;29;20568;-88
2022/09/02 10:31:12;;;;;;;4.82;0.90;;;23.90;86.10;;;;;;4883846;29;20047;-88
2022/09/02 10:34:02;;;;;;;3.38;0.93;;;23.90;85.90;;;;;;4884858;29;20439;-88
2022/09/02 10:36:46;;;;;;;3.08;0.90;;;24.00;86.90;;;;;;4884016;29;20497;-87
2022/09/02 10:39:44;;;;;;;3.00;1.58;;;24.20;88.20;;;;;;4882777;29;20048;-85
2022/09/02 10:42:38;;;;;;;3.28;0.82;;;24.40;84.40;;;;;;4887839;29;20066;-87
2022/09/02 10:45:16;;;;;;;3.65;0.80;;;24.50;81.70;;;;;;4902507;29;20484;-88
2022/09/02 10:47:51;;;;;;;2.63;1.00;;;24.50;83.70;;;;;;4902802;29;20044;-86
2022/09/02 10:50:33;;;;;;;4.80;1.30;;;24.70;83.90;;;;;;4902615;29;20103;-85
2022/09/02 10:53:13;;;;;;;3.67;0.90;;;24.70;83.20;;;;;;4902344;29;20107;-85
2022/09/02 10:55:57;;;;;;;6.25;1.02;;;24.90;82.10;;;;;;4902927;29;20063;-87
2022/09/02 10:58:38;;;;;;;3.05;0.90;;;25.10;81.10;;;;;;4886536;29;20449;-83
2022/09/02 11:01:06;;;;;;;3.10;0.90;;;25.20;77.80;;;;;;4902044;29;20127;-86
2022/09/02 11:03:59;;;;;;;3.55;0.80;;;25.30;78.00;;;;;;4901402;29;20408;-87
2022/09/02 11:06:31;;;;;;;3.63;0.85;;;25.40;74.90;;;;;;4900927;29;20091;-87
2022/09/02 11:09:00;;;;;;;2.65;0.70;;;25.50;75.30;;;;;;4885877;29;20131;-86
2022/09/02 11:11:45;;;;;;;3.80;0.70;;;25.70;75.70;;;;;;4918449;29;20103;-87
2022/09/02 11:14:20;;;;;;;1.42;0.75;;;25.70;73.60;;;;;;4901303;29;20103;-89
2022/09/02 11:17:01;;;;;;;2.10;0.82;;;25.80;72.90;;;;;;4901994;29;20552;-85
2022/09/02 11:19:47;;;;;;;2.72;0.75;;;25.80;72.50;;;;;;4900053;29;20052;-84
2022/09/02 11:22:53;;;;;;;3.65;0.82;;;25.90;73.60;;;;;;4917410;29;20040;-84
2022/09/02 11:25:34;;;;;;;2.10;0.80;;;26.00;71.50;;;;;;4917140;29;20040;-84
2022/09/02 11:28:35;;;;;;;7.57;1.25;;;25.90;70.00;;;;;;4917382;29;20079;-85
2022/09/02 11:31:14;;;;;;;3.30;0.80;;;25.90;68.20;;;;;;4900612;29;20465;-83
2022/09/02 11:34:08;;;;;;;3.78;0.80;;;25.90;68.70;;;;;;4899637;29;20123;-84
2022/09/02 11:36:38;;;;;;;2.25;1.05;;;26.10;68.40;;;;;;4917027;29;20040;-85
2022/09/02 11:39:07;;;;;;;8.77;1.33;;;26.10;69.00;;;;;;4899573;29;20099;-83
2022/09/02 11:41:44;;;;;;;2.80;0.77;;;26.20;67.60;;;;;;4916770;29;20059;-83
2022/09/02 11:44:28;;;;;;;4.07;0.80;;;26.20;67.30;;;;;;4916513;29;20052;-84
2022/09/02 11:47:06;;;;;;;5.75;0.98;;;26.30;66.50;;;;;;4900966;29;20044;-83
2022/09/02 11:49:49;;;;;;;1.98;0.60;;;26.30;66.00;;;;;;4916472;29;20477;-84
2022/09/02 11:52:50;;;;;;;1.70;0.85;;;26.30;65.70;;;;;;4899589;29;20071;-84
2022/09/02 11:55:22;;;;;;;3.65;1.10;;;26.30;65.90;;;;;;4916408;29;20047;-84
2022/09/02 11:57:53;;;;;;;3.20;0.70;;;26.40;67.00;;;;;;4916155;29;20074;-84
2022/09/02 12:00:54;;;;;;;3.80;0.90;;;26.50;65.60;;;;;;4879594;29;1080581;-84
2022/09/02 12:03:24;;;;;;;3.08;1.30;;;26.60;66.20;;;;;;4884442;29;20492;-82
2022/09/02 12:06:04;;;;;;;5.40;0.80;;;26.60;64.40;;;;;;4900396;29;20051;-83
2022/09/02 12:08:35;;;;;;;2.78;0.90;;;26.60;63.30;;;;;;4917258;29;20044;-84
2022/09/02 12:11:05;;;;;;;1.63;0.70;;;26.60;64.00;;;;;;4917162;29;20444;-83
2022/09/02 12:13:48;;;;;;;2.85;0.77;;;26.70;64.70;;;;;;4917222;29;20045;-84
2022/09/02 12:16:14;;;;;;;3.03;0.85;;;26.80;63.80;;;;;;4900184;29;20078;-83
2022/09/02 12:18:45;;;;;;;3.28;0.90;;;26.80;63.50;;;;;;4917186;29;20492;-84
2022/09/02 12:21:13;;;;;;;4.32;1.20;;;26.90;63.40;;;;;;4917354;29;20036;-83
2022/09/02 12:23:48;;;;;;;3.42;1.42;;;27.00;63.20;;;;;;4917079;29;20056;-83
2022/09/02 12:26:21;;;;;;;;;;;27.00;62.40;;;;;;4884736;29;20123;-84
2022/09/02 12:28:49;;;;;;;2.05;0.80;;;27.10;63.10;;;;;;4917164;29;20014;-84
2022/09/02 12:31:41;;;;;;;3.40;1.27;;;27.00;61.90;;;;;;4917463;29;20357;-83
2022/09/02 12:34:19;;;;;;;3.63;0.80;;;27.00;62.60;;;;;;4903533;29;20048;-83
2022/09/02 12:36:53;;;;;;;4.38;1.05;;;26.90;61.90;;;;;;4903405;29;20083;-83
2022/09/02 12:39:22;;;;;;;3.08;0.90;;;27.00;61.70;;;;;;4920339;29;20036;-84
2022/09/02 12:41:57;;;;;;;4.28;1.00;;;26.90;61.20;;;;;;4920318;29;20564;-84
2022/09/02 12:44:47;;;;;;;5.03;1.40;;;26.80;60.20;;;;;;4921123;29;20084;-83
2022/09/02 12:47:20;;;;;;;2.58;1.33;;;26.80;61.40;;;;;;4920545;29;20058;-84
2022/09/02 12:49:51;;;;;;;1.92;1.00;;;26.80;62.40;;;;;;4920579;29;20115;-84
2022/09/02 12:52:41;;;;;;;1.38;0.73;;;26.90;62.00;;;;;;4889040;29;20052;-82
2022/09/02 12:55:28;;;;;;;6.60;1.15;;;26.90;60.30;;;;;;4900358;29;20041;-83
2022/09/02 12:58:06;;;;;;;5.60;1.27;;;27.00;59.80;;;;;;4900287;29;20105;-82
2022/09/02 13:01:04;;;;;;;3.63;1.10;;;26.90;60.10;;;;;;4906223;29;20056;-82
2022/09/02 13:03:32;;;;;;;6.88;1.15;;;26.90;60.20;;;;;;4867330;29;20107;-84
2022/09/02 13:06:11;;;;;;;4.47;1.13;;;26.80;60.60;;;;;;4901459;29;20048;-84
2022/09/02 13:09:02;;;;;;;3.40;1.10;;;26.90;61.40;;;;;;4884588;29;20115;-83
2022/09/02 13:11:49;;;;;;;2.53;1.00;;;27.10;60.90;;;;;;4901191;29;20100;-84
2022/09/02 13:14:46;;;;;;;4.85;1.30;;;27.20;61.80;;;;;;4901708;29;20127;-85
2022/09/02 13:17:30;;;;;;;2.28;1.00;;;27.30;60.70;;;;;;4901247;29;20378;-82
2022/09/02 13:20:05;;;;;;;2.55;1.10;;;27.30;60.60;;;;;;4900861;29;20099;-83
2022/09/02 13:22:40;;;;;;;;;;;27.40;61.20;;;;;;4901221;29;20040;-83
2022/09/02 13:25:26;;;;;;;2.83;0.80;;;27.40;59.40;;;;;;4901002;29;20022;-83
2022/09/02 13:28:27;;;;;;;5.28;1.20;;;27.30;59.50;;;;;;4900951;29;20082;-84
2022/09/02 13:31:24;;;;;;;6.20;1.05;;;27.30;59.10;;;;;;4868205;29;20056;-85
2022/09/02 13:34:10;;;;;;;3.17;0.90;;;27.40;59.20;;;;;;4902053;29;20084;-86
2022/09/02 13:36:39;;;;;;;5.10;1.20;;;27.40;58.60;;;;;;4901777;29;20063;-85
2022/09/02 13:39:19;;;;;;;3.08;1.05;;;27.30;57.80;;;;;;4902254;29;20052;-84
2022/09/02 13:41:48;;;;;;;2.20;1.10;;;27.40;59.20;;;;;;4902195;29;20126;-84
2022/09/02 13:44:23;;;;;;;2.85;1.00;;;27.60;58.50;;;;;;4882672;29;20044;-84
2022/09/02 13:46:51;;;;;;;;;;;27.70;57.80;;;;;;4901022;29;20161;-83
2022/09/02 13:49:38;;;;;;;4.00;1.38;;;27.60;58.00;;;;;;4884301;29;20013;-83
2022/09/02 13:52:10;;;;;;;5.70;1.20;;;27.70;56.90;;;;;;4901712;29;20049;-84
2022/09/02 13:54:38;;;;;;;4.25;1.30;;;27.60;57.40;;;;;;4900426;29;20053;-82
2022/09/02 13:57:08;;;;;;;2.08;1.10;;;27.50;57.30;;;;;;4900652;29;20437;-84
2022/09/02 13:59:40;;;;;;;2.58;1.00;;;27.50;57.60;;;;;;4883717;29;20044;-85
2022/09/02 14:02:27;;;;;;;3.88;1.20;;;27.60;58.00;;;;;;4883133;29;20045;-84
2022/09/02 14:04:58;;;;;;;2.67;1.10;;;27.70;56.90;;;;;;4883619;29;20048;-85
2022/09/02 14:07:49;;;;;;;2.10;1.00;;;27.60;57.50;;;;;;4883454;29;20084;-83
2022/09/02 14:10:18;;;;;;;5.78;1.02;;;27.60;57.40;;;;;;4883134;29;20489;-84
2022/09/02 14:12:45;;;;;;;4.63;1.08;;;27.60;57.40;;;;;;4901021;29;20080;-85
2022/09/02 14:15:13;;;;;;;1.98;1.00;;;27.60;57.70;;;;;;4883622;29;20048;-83
2022/09/02 14:17:39;;;;;;;5.63;0.90;;;27.70;57.60;;;;;;4900118;29;20392;-82
2022/09/02 14:20:08;;;;;;;5.03;1.17;;;27.70;57.40;;;;;;4883087;29;20120;-83
2022/09/02 14:22:34;;;;;;;4.55;1.10;;;27.60;56.10;;;;;;4899625;29;20045;-84
2022/09/02 14:25:10;;;;;;;4.65;1.10;;;27.50;56.70;;;;;;4900275;29;20045;-82
2022/09/02 14:27:37;;;;;;;4.53;1.23;;;27.50;57.80;;;;;;4883435;29;20590;-84
2022/09/02 14:30:08;;;;;;;3.03;1.30;;;27.50;58.10;;;;;;4883125;29;20371;-82
2022/09/02 14:32:34;;;;;;;4.22;1.17;;;27.60;57.50;;;;;;4899825;29;20053;-83
2022/09/02 14:35:08;;;;;;;3.53;1.30;;;27.40;56.20;;;;;;4900356;29;20082;-85
2022/09/02 14:37:57;;;;;;;2.30;1.20;;;27.20;55.70;;;;;;4900728;29;20041;-85
2022/09/02 14:40:39;;;;;;;4.28;1.30;;;27.10;55.40;;;;;;4899451;29;20056;-80
2022/09/02 14:43:12;;;;;;;2.33;1.10;;;27.20;56.10;;;;;;4877523;29;20414;-84
2022/09/02 14:45:42;;;;;;;2.08;1.20;;;27.20;56.90;;;;;;4894493;29;20045;-84
2022/09/02 14:48:21;;;;;;;2.08;1.10;;;27.30;56.70;;;;;;4883723;29;20441;-81
2022/09/02 14:50:48;;;;;;;4.72;1.20;;;27.30;55.60;;;;;;4898961;29;20083;-84
2022/09/02 14:53:21;;;;;;;3.15;1.10;;;27.20;56.50;;;;;;4883518;29;20483;-82
2022/09/02 14:55:51;;;;;;;2.70;1.20;;;27.20;57.10;;;;;;4882741;29;20378;-81
2022/09/02 14:58:18;;;;;;;1.73;1.23;;;27.30;56.90;;;;;;4899378;29;20052;-84
2022/09/02 15:00:52;;;;;;;3.25;1.25;;;27.40;57.40;;;;;;4899132;29;20044;-84
2022/09/02 15:03:19;;;;;;;2.10;1.25;;;27.50;56.90;;;;;;4882751;29;20512;-85
2022/09/02 15:05:45;;;;;;;3.38;1.67;;;27.40;56.70;;;;;;4899207;29;20052;-85
2022/09/02 15:08:11;;;;;;;3.67;1.30;;;27.40;56.40;;;;;;4866535;29;20124;-84
2022/09/02 15:10:39;;;;;;;2.53;1.02;;;27.30;56.50;;;;;;4882085;29;20053;-84
2022/09/02 15:13:06;;;;;;;2.97;1.13;;;27.30;57.10;;;;;;4882122;29;20048;-86
2022/09/02 15:15:32;;;;;;;2.72;1.33;;;27.30;56.20;;;;;;4883460;29;20131;-86
2022/09/02 15:17:58;;;;;;;4.13;1.30;;;27.20;56.70;;;;;;4883407;29;20134;-86
2022/09/02 15:20:23;;;;;;;3.10;1.20;;;27.20;56.00;;;;;;4882630;29;20512;-86
2022/09/02 15:22:51;;;;;;;1.70;0.98;;;27.30;56.80;;;;;;4883387;29;20084;-84
2022/09/02 15:25:16;;;;;;;3.80;1.30;;;27.30;57.10;;;;;;4883109;29;20061;-85
2022/09/02 15:27:42;;;;;;;3.88;1.10;;;27.40;56.90;;;;;;4883244;29;20047;-86
2022/09/02 15:30:08;;;;;;;2.17;1.10;;;27.40;56.70;;;;;;4898572;29;20072;-85
2022/09/02 15:32:35;;;;;;;2.75;1.17;;;27.50;57.20;;;;;;4882566;29;20051;-86
2022/09/02 15:35:01;;;;;;;5.40;1.63;;;27.50;56.10;;;;;;4914084;29;20556;-86
2022/09/02 15:37:26;;;;;;;1.70;1.00;;;27.40;55.70;;;;;;4882651;29;20044;-86
2022/09/02 15:39:52;;;;;;;2.28;1.00;;;27.30;55.50;;;;;;4882455;29;20048;-85
2022/09/02 15:42:18;;;;;;;3.95;1.55;;;27.30;55.50;;;;;;4899327;29;20063;-85
2022/09/02 15:44:45;;;;;;;3.47;1.10;;;27.30;56.30;;;;;;4899139;29;20036;-82
2022/09/02 15:47:10;;;;;;;3.28;1.25;;;27.20;56.20;;;;;;4913334;29;20045;-85
2022/09/02 15:49:36;;;;;;;4.30;1.15;;;27.30;55.80;;;;;;4899266;29;20071;-85
2022/09/02 15:52:02;;;;;;;3.92;1.40;;;27.30;55.10;;;;;;4882745;29;20072;-85
2022/09/02 15:54:28;;;;;;;3.50;1.30;;;27.30;55.30;;;;;;4882927;29;20507;-86
2022/09/02 15:56:55;;;;;;;5.00;1.38;;;27.40;55.40;;;;;;4899431;29;20048;-85
2022/09/02 15:59:22;;;;;;;4.43;1.20;;;27.40;55.20;;;;;;4898111;29;20092;-88
2022/09/02 16:01:59;;;;;;;3.15;1.20;;;27.30;55.40;;;;;;4913893;29;20513;-85
2022/09/02 16:04:26;;;;;;;2.90;1.10;;;27.00;55.60;;;;;;4882612;29;20160;-84
2022/09/02 16:06:52;;;;;;;5.28;1.13;;;26.80;55.50;;;;;;4883318;29;20048;-84
2022/09/02 16:09:18;;;;;;;3.95;1.30;;;26.70;55.70;;;;;;4886131;29;20055;-85
2022/09/02 16:11:48;;;;;;;2.05;1.00;;;26.70;55.20;;;;;;4917128;29;20127;-83
2022/09/02 16:14:13;;;;;;;5.15;1.65;;;26.60;55.40;;;;;;4885753;29;20044;-85